createdAt,value
2018-07-06T00:02:00.829Z,6.20
2018-07-06T00:04:42.219Z,5.97
2018-07-06T00:07:23.436Z,7.13
2018-07-06T00:10:04.997Z,15.30
2018-07-06T00:12:46.218Z,6.20
2018-07-06T00:15:27.247Z,5.63
2018-07-06T00:18:08.790Z,6.00
2018-07-06T00:20:49.350Z,5.70
2018-07-06T00:23:30.685Z,7.30
2018-07-06T00:26:11.967Z,6.07
2018-07-06T00:28:53.437Z,5.57
2018-07-06T00:31:34.839Z,5.90
2018-07-06T00:34:16.228Z,5.55
2018-07-06T00:36:58.436Z,5.53
2018-07-06T00:39:39.666Z,5.30
2018-07-06T00:42:20.601Z,4.93
2018-07-06T00:45:02.013Z,5.50
2018-07-06T00:47:43.557Z,5.78
2018-07-06T00:50:24.781Z,5.23
2018-07-06T00:53:05.920Z,6.80
2018-07-06T00:55:47.306Z,7.17
2018-07-06T00:58:28.693Z,5.57
2018-07-06T01:01:10.083Z,8.60
2018-07-06T01:03:51.725Z,5.17
2018-07-06T01:06:33.258Z,5.77
2018-07-06T01:09:14.237Z,5.70
2018-07-06T01:11:55.466Z,5.23
2018-07-06T01:14:36.946Z,6.63
2018-07-06T01:17:17.747Z,5.80
2018-07-06T01:19:58.952Z,5.92
2018-07-06T01:22:40.205Z,7.03
2018-07-06T01:25:21.043Z,6.00
2018-07-06T01:28:02.127Z,6.00
2018-07-06T01:30:43.663Z,6.10
2018-07-06T01:33:24.647Z,7.77
2018-07-06T01:36:05.874Z,6.73
2018-07-06T01:38:47.425Z,7.75
2018-07-06T01:41:28.295Z,7.07
2018-07-06T01:44:09.781Z,7.53
2018-07-06T01:46:51.139Z,9.63
2018-07-06T01:49:32.488Z,6.77
2018-07-06T01:52:13.933Z,7.47
2018-07-06T01:54:55.344Z,8.03
2018-07-06T01:57:36.634Z,7.57
2018-07-06T02:00:17.681Z,7.97
2018-07-06T02:02:58.653Z,9.07
2018-07-06T02:05:39.902Z,8.57
2018-07-06T02:08:20.994Z,8.00
2018-07-06T02:11:02.228Z,9.43
2018-07-06T02:13:43.609Z,7.92
2018-07-06T02:16:24.756Z,8.23
2018-07-06T02:19:06.142Z,10.43
2018-07-06T02:21:47.116Z,8.93
2018-07-06T02:24:28.505Z,11.30
2018-07-06T02:27:09.371Z,8.40
2018-07-06T02:29:50.341Z,7.37
2018-07-06T02:32:32.498Z,7.67
2018-07-06T02:35:13.904Z,7.70
2018-07-06T02:37:55.405Z,7.67
2018-07-06T02:40:36.400Z,8.03
2018-07-06T02:43:17.637Z,8.83
2018-07-06T02:45:59.464Z,7.97
2018-07-06T02:48:40.413Z,9.00
2018-07-06T02:51:21.316Z,8.60
2018-07-06T02:54:02.922Z,10.77
2018-07-06T02:56:43.903Z,9.13
2018-07-06T02:59:24.865Z,8.17
2018-07-06T03:02:06.509Z,8.77
2018-07-06T03:04:47.876Z,11.78
2018-07-06T03:07:29.430Z,8.67
2018-07-06T03:10:10.660Z,7.75
2018-07-06T03:12:51.551Z,7.90
2018-07-06T03:15:32.185Z,7.70
2018-07-06T03:18:13.592Z,7.23
2018-07-06T03:20:54.678Z,6.03
2018-07-06T03:23:35.685Z,7.83
2018-07-06T03:26:17.071Z,6.28
2018-07-06T03:28:57.874Z,4.23
2018-07-06T03:31:38.583Z,5.00
2018-07-06T03:34:19.491Z,4.80
2018-07-06T03:36:59.990Z,3.67
2018-07-06T03:39:41.082Z,5.00
2018-07-06T03:42:21.901Z,3.47
2018-07-06T03:45:03.493Z,3.30
2018-07-06T03:47:44.887Z,3.67
2018-07-06T03:50:25.737Z,4.87
2018-07-06T03:53:07.121Z,3.72
2018-07-06T03:55:48.521Z,4.60
2018-07-06T03:58:29.913Z,4.23
2018-07-06T04:01:11.301Z,4.30
2018-07-06T04:03:52.732Z,4.07
2018-07-06T04:06:34.018Z,3.37
2018-07-06T04:09:15.586Z,5.20
2018-07-06T04:11:56.765Z,3.70
2018-07-06T04:14:38.197Z,2.90
2018-07-06T04:17:19.668Z,2.90
2018-07-06T04:20:00.941Z,3.93
2018-07-06T04:22:42.464Z,2.70
2018-07-06T04:25:23.860Z,3.37
2018-07-06T04:28:04.434Z,2.50
2018-07-06T04:30:45.740Z,3.60
2018-07-06T04:33:26.788Z,2.80
2018-07-06T04:36:08.480Z,2.50
2018-07-06T04:38:49.557Z,4.20
2018-07-06T04:41:30.796Z,4.50
2018-07-06T04:44:11.901Z,2.50
2018-07-06T04:46:53.130Z,3.67
2018-07-06T04:49:34.163Z,2.87
2018-07-06T04:52:15.459Z,4.85
2018-07-06T04:54:56.322Z,2.90
2018-07-06T04:57:37.811Z,2.50
2018-07-06T05:00:18.723Z,2.67
2018-07-06T05:02:59.997Z,2.90
2018-07-06T05:05:40.510Z,3.17
2018-07-06T05:08:22.124Z,3.03
2018-07-06T05:11:03.516Z,2.80
2018-07-06T05:13:44.696Z,5.90
2018-07-06T05:16:26.101Z,3.10
2018-07-06T05:19:07.136Z,3.17
2018-07-06T05:21:48.144Z,2.67
2018-07-06T05:24:29.508Z,2.50
2018-07-06T05:27:10.634Z,2.60
2018-07-06T05:29:51.853Z,5.90
2018-07-06T05:32:33.360Z,2.60
2018-07-06T05:35:14.124Z,4.30
2018-07-06T05:37:54.807Z,3.73
2018-07-06T05:40:36.126Z,2.83
2018-07-06T05:43:16.732Z,2.95
2018-07-06T05:45:58.125Z,3.33
2018-07-06T05:48:39.059Z,3.53
2018-07-06T05:51:20.603Z,2.85
2018-07-06T05:54:01.583Z,4.70
2018-07-06T05:56:42.951Z,3.03
2018-07-06T05:59:23.686Z,3.23
2018-07-06T06:02:05.265Z,2.90
2018-07-06T06:04:46.684Z,6.43
2018-07-06T06:07:21.138Z,3.40
2018-07-06T06:09:51.804Z,3.20
2018-07-06T06:12:23.780Z,3.17
2018-07-06T06:14:55.092Z,2.60
2018-07-06T06:17:26.024Z,4.13
2018-07-06T06:19:56.705Z,2.40
2018-07-06T06:22:27.081Z,2.63
2018-07-06T06:24:57.660Z,2.58
2018-07-06T06:27:28.237Z,3.07
2018-07-06T06:29:58.857Z,2.37
2018-07-06T06:32:29.637Z,2.57
2018-07-06T06:35:01.537Z,3.10
2018-07-06T06:37:32.340Z,3.50
2018-07-06T06:40:03.168Z,3.33
2018-07-06T06:42:33.779Z,2.37
2018-07-06T06:45:04.277Z,2.52
2018-07-06T06:47:35.328Z,2.95
2018-07-06T06:50:05.597Z,2.93
2018-07-06T06:52:36.417Z,5.42
2018-07-06T06:55:07.065Z,2.73
2018-07-06T06:57:37.935Z,2.55
2018-07-06T07:00:08.947Z,2.37
2018-07-06T07:02:39.269Z,2.40
2018-07-06T07:05:09.814Z,2.22
2018-07-06T07:07:40.433Z,2.52
2018-07-06T07:10:11.341Z,2.80
2018-07-06T07:12:42.080Z,2.40
2018-07-06T07:15:12.876Z,2.50
2018-07-06T07:17:44.371Z,2.90
2018-07-06T07:20:15.125Z,2.57
2018-07-06T07:22:45.853Z,2.50
2018-07-06T07:25:16.527Z,2.53
2018-07-06T07:27:47.281Z,2.90
2018-07-06T07:30:18.171Z,3.10
2018-07-06T07:32:49.068Z,2.37
2018-07-06T07:35:19.603Z,2.73
2018-07-06T07:37:50.829Z,2.70
2018-07-06T07:40:21.074Z,3.00
2018-07-06T07:42:52.189Z,3.27
2018-07-06T07:45:22.910Z,3.27
2018-07-06T07:47:53.462Z,3.92
2018-07-06T07:50:24.025Z,8.77
2018-07-06T07:53:04.523Z,3.00
2018-07-06T07:55:34.879Z,2.53
2018-07-06T07:58:04.901Z,2.40
2018-07-06T08:00:35.638Z,2.72
2018-07-06T08:03:07.026Z,3.30
2018-07-06T08:05:36.904Z,4.90
2018-07-06T08:08:07.822Z,2.63
2018-07-06T08:10:37.696Z,2.93
2018-07-06T08:13:08.065Z,3.00
2018-07-06T08:15:38.377Z,2.37
2018-07-06T08:18:09.007Z,2.70
2018-07-06T08:20:39.846Z,2.90
2018-07-06T08:23:10.188Z,3.62
2018-07-06T08:25:40.748Z,3.50
2018-07-06T08:28:11.691Z,3.40
2018-07-06T08:30:42.494Z,2.80
2018-07-06T08:33:13.396Z,3.70
2018-07-06T08:35:54.583Z,4.23
2018-07-06T08:38:25.191Z,3.10
2018-07-06T08:40:55.771Z,3.50
2018-07-06T08:43:26.600Z,3.40
2018-07-06T08:45:57.254Z,6.90
2018-07-06T08:48:27.420Z,3.20
2018-07-06T08:50:58.315Z,7.20
2018-07-06T08:53:29.051Z,3.62
2018-07-06T08:55:59.719Z,3.10
2018-07-06T08:58:30.201Z,3.07
2018-07-06T09:01:01.330Z,2.87
2018-07-06T09:03:32.039Z,3.17
2018-07-06T09:06:03.105Z,2.90
2018-07-06T09:08:33.668Z,3.60
2018-07-06T09:11:04.060Z,3.42
2018-07-06T09:13:34.642Z,3.12
2018-07-06T09:16:05.266Z,9.00
2018-07-06T09:18:35.744Z,3.30
2018-07-06T09:21:06.349Z,2.77
2018-07-06T09:23:37.126Z,4.73
2018-07-06T09:26:08.096Z,2.23
2018-07-06T09:28:38.751Z,2.77
2018-07-06T09:31:09.694Z,4.60
2018-07-06T09:33:40.106Z,3.13
2018-07-06T09:36:10.473Z,4.20
2018-07-06T09:38:41.114Z,5.15
2018-07-06T09:41:11.507Z,7.85
2018-07-06T09:43:42.186Z,5.42
2018-07-06T09:46:12.845Z,6.20
2018-07-06T09:48:43.514Z,6.97
2018-07-06T09:51:14.353Z,7.03
2018-07-06T09:53:45.109Z,7.67
2018-07-06T09:56:15.843Z,8.53
2018-07-06T09:58:46.585Z,4.83
2018-07-06T10:01:16.961Z,4.30
2018-07-06T10:03:47.620Z,4.20
2018-07-06T10:06:18.176Z,3.43
2018-07-06T10:08:49.234Z,3.90
2018-07-06T10:11:20.368Z,4.07
2018-07-06T10:13:50.816Z,3.17
2018-07-06T10:16:21.557Z,3.30
2018-07-06T10:18:52.481Z,3.63
2018-07-06T10:21:24.233Z,3.37
2018-07-06T10:23:54.873Z,2.92
2018-07-06T10:26:24.942Z,3.17
2018-07-06T10:29:36.588Z,3.63
2018-07-06T10:32:22.023Z,4.83
2018-07-06T10:34:52.701Z,3.17
2018-07-06T10:37:23.357Z,2.87
2018-07-06T10:39:54.315Z,3.83
2018-07-06T10:42:24.535Z,3.17
2018-07-06T10:44:55.284Z,3.27
2018-07-06T10:47:26.365Z,2.50
2018-07-06T10:49:56.715Z,4.37
2018-07-06T10:52:27.226Z,3.30
2018-07-06T10:54:57.803Z,4.93
2018-07-06T10:57:28.444Z,3.13
2018-07-06T10:59:58.822Z,3.30
2018-07-06T11:02:29.849Z,4.27
2018-07-06T11:05:00.630Z,3.17
2018-07-06T11:07:31.262Z,2.80
2018-07-06T11:10:01.352Z,2.73
2018-07-06T11:12:31.295Z,2.80
2018-07-06T11:15:02.302Z,3.25
2018-07-06T11:17:32.730Z,3.47
2018-07-06T11:20:03.404Z,4.20
2018-07-06T11:22:34.070Z,4.05
2018-07-06T11:25:04.616Z,3.73
2018-07-06T11:27:35.996Z,4.67
2018-07-06T11:30:06.402Z,4.17
2018-07-06T11:32:36.995Z,4.40
2018-07-06T11:35:07.709Z,5.90
2018-07-06T11:37:38.473Z,4.67
2018-07-06T11:40:09.361Z,5.90
2018-07-06T11:42:40.096Z,4.90
2018-07-06T11:45:10.756Z,4.30
2018-07-06T11:47:41.100Z,4.70
2018-07-06T11:50:11.512Z,4.40
2018-07-06T11:52:42.474Z,5.50
2018-07-06T11:55:12.952Z,16.45
2018-07-06T11:57:43.580Z,5.47
2018-07-06T12:00:14.320Z,6.93
2018-07-06T12:02:44.921Z,8.70
2018-07-06T12:05:15.873Z,9.40
2018-07-06T12:07:46.600Z,14.53
2018-07-06T12:10:16.960Z,13.03
2018-07-06T12:12:47.626Z,24.30
2018-07-06T12:15:18.281Z,7.13
2018-07-06T12:17:48.956Z,14.77
2018-07-06T12:20:19.662Z,6.70
2018-07-06T12:22:50.606Z,23.10
2018-07-06T12:25:20.919Z,8.47
2018-07-06T12:27:51.309Z,8.90
2018-07-06T12:30:22.005Z,11.13
2018-07-06T12:32:52.752Z,8.90
2018-07-06T12:35:23.408Z,7.60
2018-07-06T12:37:53.775Z,14.40
2018-07-06T12:40:24.146Z,8.30
2018-07-06T12:42:54.840Z,10.63
2018-07-06T12:45:25.334Z,8.97
2018-07-06T12:47:55.651Z,8.07
2018-07-06T12:50:26.289Z,8.97
2018-07-06T12:52:57.362Z,7.60
2018-07-06T12:55:28.117Z,9.65
2018-07-06T12:57:58.710Z,10.13
2018-07-06T13:00:29.502Z,11.93
2018-07-06T13:03:00.195Z,8.40
2018-07-06T13:05:30.950Z,9.43
2018-07-06T13:08:01.619Z,10.63
2018-07-06T13:10:31.759Z,11.10
2018-07-06T13:13:02.482Z,10.27
2018-07-06T13:15:33.453Z,11.07
2018-07-06T13:18:03.505Z,12.37
2018-07-06T13:20:34.125Z,12.63
2018-07-06T13:23:05.188Z,14.97
2018-07-06T13:25:36.090Z,12.95
2018-07-06T13:28:06.416Z,12.10
2018-07-06T13:30:36.823Z,11.55
2018-07-06T13:33:07.360Z,11.87
2018-07-06T13:35:37.837Z,15.48
2018-07-06T13:38:08.549Z,12.25
2018-07-06T13:40:38.936Z,13.43
2018-07-06T13:43:09.921Z,13.90
2018-07-06T13:45:40.349Z,14.07
2018-07-06T13:48:10.600Z,13.28
2018-07-06T13:50:41.529Z,13.45
2018-07-06T13:53:12.263Z,14.23
2018-07-06T13:55:42.937Z,14.73
2018-07-06T13:58:13.543Z,15.15
2018-07-06T14:00:43.975Z,15.30
2018-07-06T14:03:13.932Z,15.27
2018-07-06T14:05:44.454Z,16.10
2018-07-06T14:08:15.073Z,14.53
2018-07-06T14:10:45.736Z,15.47
2018-07-06T14:13:16.305Z,15.10
2018-07-06T14:15:47.018Z,19.90
2018-07-06T14:18:17.899Z,18.30
2018-07-06T14:20:47.885Z,14.93
2018-07-06T14:23:18.515Z,16.30
2018-07-06T14:25:48.553Z,15.83
2018-07-06T14:28:19.435Z,17.60
2018-07-06T14:30:50.201Z,16.80
2018-07-06T14:33:20.945Z,15.90
2018-07-06T14:35:51.275Z,19.50
2018-07-06T14:38:21.606Z,20.67
2018-07-06T14:40:52.349Z,18.90
2018-07-06T14:43:23.062Z,19.07
2018-07-06T14:45:53.516Z,18.40
2018-07-06T14:48:24.146Z,23.17
2018-07-06T14:50:54.600Z,15.47
2018-07-06T14:53:25.104Z,13.20
2018-07-06T14:55:56.099Z,13.48
2018-07-06T14:58:26.292Z,15.00
2018-07-06T15:00:56.690Z,12.63
2018-07-06T15:03:27.272Z,13.00
2018-07-06T15:05:58.086Z,13.10
2018-07-06T15:08:28.775Z,12.23
2018-07-06T15:10:59.522Z,12.33
2018-07-06T15:13:30.147Z,15.10
2018-07-06T15:16:02.067Z,12.60
2018-07-06T15:18:32.638Z,12.37
2018-07-06T15:21:03.715Z,11.67
2018-07-06T15:23:34.064Z,11.33
2018-07-06T15:26:04.530Z,10.37
2018-07-06T15:28:35.225Z,10.10
2018-07-06T15:31:05.927Z,11.10
2018-07-06T15:33:36.513Z,10.60
2018-07-06T15:36:07.423Z,10.68
2018-07-06T15:38:37.352Z,10.63
2018-07-06T15:41:08.321Z,10.37
2018-07-06T15:43:38.780Z,10.32
2018-07-06T15:46:09.842Z,10.20
2018-07-06T15:48:40.379Z,9.73
2018-07-06T15:51:10.997Z,10.72
2018-07-06T15:53:41.505Z,15.70
2018-07-06T15:56:12.212Z,11.63
2018-07-06T15:58:43.050Z,14.60
2018-07-06T16:01:13.483Z,12.15
2018-07-06T16:03:44.107Z,12.30
2018-07-06T16:06:14.839Z,11.93
2018-07-06T16:08:45.976Z,11.77
2018-07-06T16:11:16.729Z,12.70
2018-07-06T16:13:47.392Z,12.63
2018-07-06T16:16:18.754Z,12.10
2018-07-06T16:18:49.365Z,12.30
2018-07-06T16:21:19.790Z,12.10
2018-07-06T16:23:50.255Z,13.73
2018-07-06T16:26:21.335Z,14.97
2018-07-06T16:28:55.348Z,12.90
2018-07-06T16:31:25.950Z,14.10
2018-07-06T16:33:57.149Z,13.30
2018-07-06T16:36:27.150Z,13.90
2018-07-06T16:38:58.030Z,13.40
2018-07-06T16:41:28.842Z,12.60
2018-07-06T16:43:59.600Z,14.80
2018-07-06T16:46:30.034Z,13.00
2018-07-06T16:49:01.092Z,14.00
2018-07-06T16:51:31.509Z,12.82
2018-07-06T16:54:01.313Z,14.23
2018-07-06T16:56:31.795Z,15.07
2018-07-06T16:59:02.688Z,14.10
2018-07-06T17:01:33.240Z,14.33
2018-07-06T17:04:03.133Z,14.23
2018-07-06T17:06:34.131Z,14.45
2018-07-06T17:09:05.911Z,14.87
2018-07-06T17:11:36.838Z,13.93
2018-07-06T17:14:07.539Z,14.80
2018-07-06T17:16:37.993Z,15.30
2018-07-06T17:19:08.614Z,15.37
2018-07-06T17:21:39.546Z,15.58
2018-07-06T17:24:10.679Z,14.90
2018-07-06T17:26:41.014Z,15.50
2018-07-06T17:29:11.744Z,16.77
2018-07-06T17:31:42.288Z,15.60
2018-07-06T17:34:13.009Z,14.43
2018-07-06T17:36:43.838Z,15.17
2018-07-06T17:39:14.235Z,15.70
2018-07-06T17:41:45.045Z,18.10
2018-07-06T17:44:16.244Z,15.27
2018-07-06T17:46:46.823Z,13.80
2018-07-06T17:49:17.174Z,15.43
2018-07-06T17:51:47.760Z,18.90
2018-07-06T17:54:18.460Z,16.83
2018-07-06T17:56:48.907Z,16.07
2018-07-06T17:59:20.771Z,14.93
2018-07-06T18:01:51.507Z,13.90
2018-07-06T18:04:22.308Z,13.17
2018-07-06T18:06:52.810Z,12.30
2018-07-06T18:09:23.658Z,11.57
2018-07-06T18:11:54.292Z,10.87
2018-07-06T18:14:25.761Z,11.27
2018-07-06T18:16:56.526Z,11.67
2018-07-06T18:19:28.692Z,11.05
2018-07-06T18:21:59.267Z,9.77
2018-07-06T18:24:30.232Z,8.57
2018-07-06T18:27:00.665Z,9.33
2018-07-06T18:29:31.492Z,9.60
2018-07-06T18:32:02.397Z,11.90
2018-07-06T18:34:33.127Z,8.68
2018-07-06T18:37:03.837Z,9.63
2018-07-06T18:39:34.567Z,8.05
2018-07-06T18:42:04.786Z,9.70
2018-07-06T18:44:34.726Z,14.10
2018-07-06T18:47:05.745Z,13.00
2018-07-06T18:49:36.130Z,10.37
2018-07-06T18:52:06.810Z,7.80
2018-07-06T18:54:38.002Z,8.20
2018-07-06T18:57:08.919Z,12.13
2018-07-06T18:59:39.483Z,9.20
2018-07-06T19:04:55.223Z,9.67
2018-07-06T19:07:25.533Z,9.33
2018-07-06T19:09:56.620Z,11.17
2018-07-06T19:12:29.776Z,10.40
2018-07-06T19:15:00.181Z,10.83
2018-07-06T19:17:30.961Z,10.57
2018-07-06T19:20:02.338Z,12.33
2018-07-06T19:22:33.296Z,10.65
2018-07-06T19:25:04.190Z,10.93
2018-07-06T19:27:34.938Z,13.23
2018-07-06T19:30:05.683Z,11.60
2018-07-06T19:32:36.495Z,11.93
2018-07-06T19:35:07.172Z,15.07
2018-07-06T19:37:37.675Z,15.10
2018-07-06T19:40:08.170Z,12.73
2018-07-06T19:42:38.972Z,15.33
2018-07-06T19:45:09.416Z,11.85
2018-07-06T19:47:39.591Z,15.25
2018-07-06T19:50:10.312Z,11.73
2018-07-06T19:52:41.031Z,15.08
2018-07-06T19:55:11.846Z,13.85
2018-07-06T19:57:42.612Z,14.28
2018-07-06T20:00:13.273Z,14.53
2018-07-06T20:02:45.068Z,12.50
2018-07-06T20:05:15.810Z,13.35
2018-07-06T20:07:46.923Z,15.63
2018-07-06T20:10:17.155Z,14.30
2018-07-06T20:12:47.954Z,16.43
2018-07-06T20:15:18.680Z,23.30
2018-07-06T20:17:49.438Z,13.33
2018-07-06T20:20:19.990Z,14.27
2018-07-06T20:22:50.459Z,18.30
2018-07-06T20:25:21.592Z,12.97
2018-07-06T20:27:52.334Z,11.47
2018-07-06T20:30:23.089Z,11.47
2018-07-06T20:32:53.749Z,10.27
2018-07-06T20:35:23.992Z,8.40
2018-07-06T20:37:54.814Z,9.67
2018-07-06T20:40:25.193Z,13.30
2018-07-06T20:42:55.478Z,4.90
2018-07-06T20:45:26.545Z,6.40
2018-07-06T20:47:57.293Z,4.90
2018-07-06T20:50:28.236Z,2.65
2018-07-06T20:52:58.831Z,3.40
2018-07-06T20:55:30.605Z,5.03
2018-07-06T20:58:01.455Z,3.80
2018-07-06T21:00:32.225Z,8.07
2018-07-06T21:03:02.837Z,3.57
2018-07-06T21:05:33.348Z,2.85
2018-07-06T21:08:03.817Z,2.60
2018-07-06T21:10:34.808Z,6.33
2018-07-06T21:13:05.678Z,4.53
2018-07-06T21:15:36.620Z,2.45
2018-07-06T21:18:07.779Z,6.03
2018-07-06T21:20:38.633Z,5.60
2018-07-06T21:23:09.424Z,3.90
2018-07-06T21:25:40.483Z,4.27
2018-07-06T21:28:11.566Z,5.40
2018-07-06T21:30:42.185Z,2.90
2018-07-06T21:33:12.157Z,7.07
2018-07-06T21:35:42.625Z,6.45
2018-07-06T21:38:13.634Z,2.10
2018-07-06T21:40:44.571Z,4.00
2018-07-06T21:43:30.041Z,2.50
2018-07-06T21:46:01.081Z,2.60
2018-07-06T21:48:31.040Z,4.90
2018-07-06T21:51:01.785Z,3.43
2018-07-06T21:53:33.282Z,3.30
2018-07-06T21:56:03.824Z,2.80
2018-07-06T21:58:34.845Z,3.77
2018-07-06T22:01:06.163Z,3.47
2018-07-06T22:03:36.976Z,6.80
2018-07-06T22:06:07.654Z,5.10
2018-07-06T22:08:38.219Z,3.63
2018-07-06T22:11:08.730Z,2.93
2018-07-06T22:13:39.285Z,3.93
2018-07-06T22:16:09.907Z,6.35
2018-07-06T22:18:40.269Z,4.07
2018-07-06T22:21:10.522Z,5.40
2018-07-06T22:23:40.413Z,6.92
2018-07-06T22:26:10.784Z,5.15
2018-07-06T22:28:41.446Z,5.50
2018-07-06T22:31:12.298Z,5.03
2018-07-06T22:33:42.996Z,7.33
2018-07-06T22:36:13.762Z,7.30
2018-07-06T22:38:44.333Z,6.65
2018-07-06T22:41:14.831Z,11.25
2018-07-06T22:43:45.845Z,10.60
2018-07-06T22:46:16.392Z,8.75
2018-07-06T22:48:47.281Z,9.98
2018-07-06T22:51:18.150Z,10.67
2018-07-06T22:53:48.077Z,11.13
2018-07-06T22:56:18.390Z,11.87
2018-07-06T22:58:48.963Z,12.63
2018-07-06T23:01:21.016Z,12.30
2018-07-06T23:03:51.438Z,10.90
2018-07-06T23:06:22.193Z,13.37
2018-07-06T23:08:52.819Z,12.17
2018-07-06T23:11:23.509Z,12.40
2018-07-06T23:13:54.296Z,12.83
2018-07-06T23:16:24.903Z,14.53
2018-07-06T23:18:55.535Z,15.20
2018-07-06T23:21:26.402Z,13.37
2018-07-06T23:23:57.333Z,13.00
2018-07-06T23:26:27.929Z,13.23
2018-07-06T23:28:58.568Z,14.80
2018-07-06T23:31:29.244Z,13.80
2018-07-06T23:34:00.313Z,18.97
2018-07-06T23:36:30.607Z,13.40
2018-07-06T23:39:01.393Z,14.83
2018-07-06T23:41:31.968Z,15.43
2018-07-06T23:44:02.339Z,14.07
2018-07-06T23:46:32.948Z,15.93
2018-07-06T23:49:03.473Z,13.47
2018-07-06T23:51:34.038Z,14.60
2018-07-06T23:54:04.660Z,14.25
2018-07-06T23:56:35.528Z,14.47
2018-07-06T23:59:06.012Z,14.10
